sensor_id;sensor_type;location;lat;lon;timestamp;temperature;humidity
4366;DHT22;2196;47.422;9.656;2023-02-18T00:00:05;9.40;99.90
4366;DHT22;2196;47.422;9.656;2023-02-18T00:02:34;9.30;99.90
4366;DHT22;2196;47.422;9.656;2023-02-18T00:05:01;9.30;99.90
4366;DHT22;2196;47.422;9.656;2023-02-18T00:07:35;9.30;99.90
4366;DHT22;2196;47.422;9.656;2023-02-18T00:10:03;9.30;99.90
4366;DHT22;2196;47.422;9.656;2023-02-18T00:12:30;9.40;99.90
4366;DHT22;2196;47.422;9.656;2023-02-18T00:14:57;9.40;99.90
4366;DHT22;2196;47.422;9.656;2023-02-18T00:17:24;9.40;99.90
4366;DHT22;2196;47.422;9.656;2023-02-18T00:19:51;9.30;99.90
4366;DHT22;2196;47.422;9.656;2023-02-18T00:22:18;9.30;99.90
4366;DHT22;2196;47.422;9.656;2023-02-18T00:24:47;9.30;99.90
4366;DHT22;2196;47.422;9.656;2023-02-18T00:27:14;9.30;99.90
4366;DHT22;2196;47.422;9.656;2023-02-18T00:29:40;9.20;99.90
4366;DHT22;2196;47.422;9.656;2023-02-18T00:32:07;9.20;99.90
4366;DHT22;2196;47.422;9.656;2023-02-18T00:34:34;9.20;99.90
4366;DHT22;2196;47.422;9.656;2023-02-18T00:37:01;9.20;99.90
4366;DHT22;2196;47.422;9.656;2023-02-18T00:39:28;9.20;99.90
4366;DHT22;2196;47.422;9.656;2023-02-18T00:41:57;9.20;99.90
4366;DHT22;2196;47.422;9.656;2023-02-18T00:44:24;9.30;99.90
4366;DHT22;2196;47.422;9.656;2023-02-18T00:46:51;9.30;99.90
4366;DHT22;2196;47.422;9.656;2023-02-18T00:49:18;9.20;99.90
4366;DHT22;2196;47.422;9.656;2023-02-18T00:51:44;9.20;99.90
4366;DHT22;2196;47.422;9.656;2023-02-18T00:54:11;9.10;99.90
4366;DHT22;2196;47.422;9.656;2023-02-18T00:56:38;9.10;99.90
4366;DHT22;2196;47.422;9.656;2023-02-18T00:59:07;9.00;99.90
4366;DHT22;2196;47.422;9.656;2023-02-18T01:01:34;9.00;99.90
4366;DHT22;2196;47.422;9.656;2023-02-18T01:04:01;9.00;99.90
4366;DHT22;2196;47.422;9.656;2023-02-18T01:06:28;9.00;99.90
4366;DHT22;2196;47.422;9.656;2023-02-18T01:08:55;8.90;99.90
4366;DHT22;2196;47.422;9.656;2023-02-18T01:11:22;9.00;99.90
4366;DHT22;2196;47.422;9.656;2023-02-18T01:13:49;8.90;99.90
4366;DHT22;2196;47.422;9.656;2023-02-18T01:16:18;8.90;99.90
4366;DHT22;2196;47.422;9.656;2023-02-18T01:18:45;8.90;99.90
4366;DHT22;2196;47.422;9.656;2023-02-18T01:21:12;8.90;99.90
4366;DHT22;2196;47.422;9.656;2023-02-18T01:23:39;8.90;99.90
4366;DHT22;2196;47.422;9.656;2023-02-18T01:26:07;8.80;99.90
4366;DHT22;2196;47.422;9.656;2023-02-18T01:28:34;8.80;99.90
4366;DHT22;2196;47.422;9.656;2023-02-18T01:31:05;8.80;99.90
4366;DHT22;2196;47.422;9.656;2023-02-18T01:33:34;8.80;99.90
4366;DHT22;2196;47.422;9.656;2023-02-18T01:36:01;8.70;99.90
4366;DHT22;2196;47.422;9.656;2023-02-18T01:38:28;8.70;99.90
4366;DHT22;2196;47.422;9.656;2023-02-18T01:40:55;8.60;99.90
4366;DHT22;2196;47.422;9.656;2023-02-18T01:43:23;8.60;99.90
4366;DHT22;2196;47.422;9.656;2023-02-18T01:46:02;8.50;99.90
4366;DHT22;2196;47.422;9.656;2023-02-18T01:48:34;8.60;99.90
4366;DHT22;2196;47.422;9.656;2023-02-18T01:51:04;8.50;99.90
4366;DHT22;2196;47.422;9.656;2023-02-18T01:53:38;8.50;99.90
4366;DHT22;2196;47.422;9.656;2023-02-18T01:56:08;8.40;99.90
4366;DHT22;2196;47.422;9.656;2023-02-18T01:58:37;8.30;99.90
4366;DHT22;2196;47.422;9.656;2023-02-18T02:01:04;8.30;99.90
4366;DHT22;2196;47.422;9.656;2023-02-18T02:03:33;8.30;99.90
4366;DHT22;2196;47.422;9.656;2023-02-18T02:06:00;8.30;99.90
4366;DHT22;2196;47.422;9.656;2023-02-18T02:08:27;8.30;99.90
4366;DHT22;2196;47.422;9.656;2023-02-18T02:11:13;8.30;99.90
4366;DHT22;2196;47.422;9.656;2023-02-18T02:14:05;8.20;99.90
4366;DHT22;2196;47.422;9.656;2023-02-18T02:16:40;8.20;99.90
4366;DHT22;2196;47.422;9.656;2023-02-18T02:19:30;8.10;99.90
4366;DHT22;2196;47.422;9.656;2023-02-18T02:22:30;8.10;99.90
4366;DHT22;2196;47.422;9.656;2023-02-18T02:25:12;8.10;99.90
4366;DHT22;2196;47.422;9.656;2023-02-18T02:28:27;8.10;99.90
4366;DHT22;2196;47.422;9.656;2023-02-18T02:31:19;8.00;99.90
4366;DHT22;2196;47.422;9.656;2023-02-18T02:34:33;8.00;99.90
4366;DHT22;2196;47.422;9.656;2023-02-18T02:37:10;8.00;99.90
4366;DHT22;2196;47.422;9.656;2023-02-18T02:39:43;7.90;99.90
4366;DHT22;2196;47.422;9.656;2023-02-18T02:42:17;7.90;99.90
4366;DHT22;2196;47.422;9.656;2023-02-18T02:44:52;7.90;99.90
4366;DHT22;2196;47.422;9.656;2023-02-18T02:47:26;7.80;99.90
4366;DHT22;2196;47.422;9.656;2023-02-18T02:50:03;7.90;99.90
4366;DHT22;2196;47.422;9.656;2023-02-18T02:52:38;7.80;99.90
4366;DHT22;2196;47.422;9.656;2023-02-18T02:55:08;7.80;99.90
4366;DHT22;2196;47.422;9.656;2023-02-18T02:57:48;7.70;99.90
4366;DHT22;2196;47.422;9.656;2023-02-18T03:00:18;7.70;99.90
4366;DHT22;2196;47.422;9.656;2023-02-18T03:03:10;7.60;99.90
4366;DHT22;2196;47.422;9.656;2023-02-18T03:05:54;7.50;99.90
4366;DHT22;2196;47.422;9.656;2023-02-18T03:08:35;7.40;99.90
4366;DHT22;2196;47.422;9.656;2023-02-18T03:11:08;7.40;99.90
4366;DHT22;2196;47.422;9.656;2023-02-18T03:13:45;7.40;99.90
4366;DHT22;2196;47.422;9.656;2023-02-18T03:16:22;7.30;99.90
4366;DHT22;2196;47.422;9.656;2023-02-18T03:18:58;7.30;99.90
4366;DHT22;2196;47.422;9.656;2023-02-18T03:21:31;7.10;99.90
4366;DHT22;2196;47.422;9.656;2023-02-18T03:24:02;7.00;99.90
4366;DHT22;2196;47.422;9.656;2023-02-18T03:26:31;6.90;99.90
4366;DHT22;2196;47.422;9.656;2023-02-18T03:29:02;6.80;99.90
4366;DHT22;2196;47.422;9.656;2023-02-18T03:31:32;6.70;99.90
4366;DHT22;2196;47.422;9.656;2023-02-18T03:34:02;6.70;99.90
4366;DHT22;2196;47.422;9.656;2023-02-18T03:36:34;6.70;99.90
4366;DHT22;2196;47.422;9.656;2023-02-18T03:39:04;6.60;99.90
4366;DHT22;2196;47.422;9.656;2023-02-18T03:41:33;6.60;99.90
4366;DHT22;2196;47.422;9.656;2023-02-18T03:44:04;6.50;99.90
4366;DHT22;2196;47.422;9.656;2023-02-18T03:46:32;6.50;99.90
4366;DHT22;2196;47.422;9.656;2023-02-18T03:48:59;6.50;99.90
4366;DHT22;2196;47.422;9.656;2023-02-18T03:51:27;6.70;99.90
4366;DHT22;2196;47.422;9.656;2023-02-18T03:53:55;6.80;99.90
4366;DHT22;2196;47.422;9.656;2023-02-18T03:56:22;7.00;99.90
4366;DHT22;2196;47.422;9.656;2023-02-18T03:58:49;7.00;99.90
4366;DHT22;2196;47.422;9.656;2023-02-18T04:01:16;6.90;99.90
4366;DHT22;2196;47.422;9.656;2023-02-18T04:03:43;6.90;99.90
4366;DHT22;2196;47.422;9.656;2023-02-18T04:06:10;6.90;99.90
4366;DHT22;2196;47.422;9.656;2023-02-18T04:08:37;6.90;99.90
4366;DHT22;2196;47.422;9.656;2023-02-18T04:11:06;6.90;99.90
4366;DHT22;2196;47.422;9.656;2023-02-18T04:13:33;6.90;99.90
4366;DHT22;2196;47.422;9.656;2023-02-18T04:16:00;7.00;99.90
4366;DHT22;2196;47.422;9.656;2023-02-18T04:18:26;7.00;99.90
4366;DHT22;2196;47.422;9.656;2023-02-18T04:20:53;7.00;99.90
4366;DHT22;2196;47.422;9.656;2023-02-18T04:23:20;6.90;99.90
4366;DHT22;2196;47.422;9.656;2023-02-18T04:25:47;6.90;99.90
4366;DHT22;2196;47.422;9.656;2023-02-18T04:28:16;6.80;99.90
4366;DHT22;2196;47.422;9.656;2023-02-18T04:30:43;6.80;99.90
4366;DHT22;2196;47.422;9.656;2023-02-18T04:33:10;6.70;99.90
4366;DHT22;2196;47.422;9.656;2023-02-18T04:35:38;6.70;99.90
4366;DHT22;2196;47.422;9.656;2023-02-18T04:38:06;6.70;99.90
4366;DHT22;2196;47.422;9.656;2023-02-18T04:40:33;6.60;99.90
4366;DHT22;2196;47.422;9.656;2023-02-18T04:43:00;6.60;99.90
4366;DHT22;2196;47.422;9.656;2023-02-18T04:45:29;6.60;99.90
4366;DHT22;2196;47.422;9.656;2023-02-18T04:47:56;6.60;99.90
4366;DHT22;2196;47.422;9.656;2023-02-18T04:50:23;6.60;99.90
4366;DHT22;2196;47.422;9.656;2023-02-18T04:52:50;6.50;99.90
4366;DHT22;2196;47.422;9.656;2023-02-18T04:55:17;6.50;99.90
4366;DHT22;2196;47.422;9.656;2023-02-18T04:57:44;6.50;99.90
4366;DHT22;2196;47.422;9.656;2023-02-18T05:00:14;6.50;99.90
4366;DHT22;2196;47.422;9.656;2023-02-18T05:02:44;6.50;99.90
4366;DHT22;2196;47.422;9.656;2023-02-18T05:05:12;6.40;99.90
4366;DHT22;2196;47.422;9.656;2023-02-18T05:07:39;6.40;99.90
4366;DHT22;2196;47.422;9.656;2023-02-18T05:10:08;6.40;99.90
4366;DHT22;2196;47.422;9.656;2023-02-18T05:12:37;6.40;99.90
4366;DHT22;2196;47.422;9.656;2023-02-18T05:15:05;6.40;99.90
4366;DHT22;2196;47.422;9.656;2023-02-18T05:17:32;6.30;99.90
4366;DHT22;2196;47.422;9.656;2023-02-18T05:20:01;6.20;99.90
4366;DHT22;2196;47.422;9.656;2023-02-18T05:22:28;6.10;99.90
4366;DHT22;2196;47.422;9.656;2023-02-18T05:24:55;6.00;99.90
4366;DHT22;2196;47.422;9.656;2023-02-18T05:27:22;5.90;99.90
4366;DHT22;2196;47.422;9.656;2023-02-18T05:29:49;5.90;99.90
4366;DHT22;2196;47.422;9.656;2023-02-18T05:32:16;5.80;99.90
4366;DHT22;2196;47.422;9.656;2023-02-18T05:34:43;5.80;99.90
4366;DHT22;2196;47.422;9.656;2023-02-18T05:37:11;5.70;99.90
4366;DHT22;2196;47.422;9.656;2023-02-18T05:39:39;5.60;99.90
4366;DHT22;2196;47.422;9.656;2023-02-18T05:42:06;5.60;99.90
4366;DHT22;2196;47.422;9.656;2023-02-18T05:44:33;5.50;99.90
4366;DHT22;2196;47.422;9.656;2023-02-18T05:47:02;5.50;99.90
4366;DHT22;2196;47.422;9.656;2023-02-18T05:49:30;5.50;99.90
4366;DHT22;2196;47.422;9.656;2023-02-18T05:51:57;5.60;99.90
4366;DHT22;2196;47.422;9.656;2023-02-18T05:54:26;5.80;99.90
4366;DHT22;2196;47.422;9.656;2023-02-18T05:56:53;5.90;99.90
4366;DHT22;2196;47.422;9.656;2023-02-18T05:59:21;5.90;99.90
4366;DHT22;2196;47.422;9.656;2023-02-18T06:01:48;6.00;99.90
4366;DHT22;2196;47.422;9.656;2023-02-18T06:04:15;6.20;99.90
4366;DHT22;2196;47.422;9.656;2023-02-18T06:06:42;6.20;99.90
4366;DHT22;2196;47.422;9.656;2023-02-18T06:09:09;6.40;99.90
4366;DHT22;2196;47.422;9.656;2023-02-18T06:11:38;6.50;99.90
4366;DHT22;2196;47.422;9.656;2023-02-18T06:14:05;6.50;99.90
4366;DHT22;2196;47.422;9.656;2023-02-18T06:16:32;6.40;99.90
4366;DHT22;2196;47.422;9.656;2023-02-18T06:18:59;6.30;99.90
4366;DHT22;2196;47.422;9.656;2023-02-18T06:21:26;6.20;99.90
4366;DHT22;2196;47.422;9.656;2023-02-18T06:23:54;6.10;99.90
4366;DHT22;2196;47.422;9.656;2023-02-18T06:26:21;6.20;99.90
4366;DHT22;2196;47.422;9.656;2023-02-18T06:28:49;6.10;99.90
4366;DHT22;2196;47.422;9.656;2023-02-18T06:31:16;6.10;99.90
4366;DHT22;2196;47.422;9.656;2023-02-18T06:33:43;6.10;99.90
4366;DHT22;2196;47.422;9.656;2023-02-18T06:36:10;6.10;99.90
4366;DHT22;2196;47.422;9.656;2023-02-18T06:38:39;6.10;99.90
4366;DHT22;2196;47.422;9.656;2023-02-18T06:41:06;6.00;99.90
4366;DHT22;2196;47.422;9.656;2023-02-18T06:43:33;6.00;99.90
4366;DHT22;2196;47.422;9.656;2023-02-18T06:46:02;6.00;99.90
4366;DHT22;2196;47.422;9.656;2023-02-18T06:48:30;6.10;99.90
4366;DHT22;2196;47.422;9.656;2023-02-18T06:50:57;6.10;99.90
4366;DHT22;2196;47.422;9.656;2023-02-18T06:53:24;6.10;99.90
4366;DHT22;2196;47.422;9.656;2023-02-18T06:55:51;6.10;99.90
4366;DHT22;2196;47.422;9.656;2023-02-18T06:58:18;6.10;99.90
4366;DHT22;2196;47.422;9.656;2023-02-18T07:00:45;6.20;99.90
4366;DHT22;2196;47.422;9.656;2023-02-18T07:03:14;6.30;99.90
4366;DHT22;2196;47.422;9.656;2023-02-18T07:05:41;6.80;99.90
4366;DHT22;2196;47.422;9.656;2023-02-18T07:08:09;7.20;99.90
4366;DHT22;2196;47.422;9.656;2023-02-18T07:10:36;7.40;99.90
4366;DHT22;2196;47.422;9.656;2023-02-18T07:13:03;7.40;99.90
4366;DHT22;2196;47.422;9.656;2023-02-18T07:15:30;7.40;99.90
4366;DHT22;2196;47.422;9.656;2023-02-18T07:17:58;7.30;99.90
4366;DHT22;2196;47.422;9.656;2023-02-18T07:20:26;7.30;99.90
4366;DHT22;2196;47.422;9.656;2023-02-18T07:22:53;7.20;99.90
4366;DHT22;2196;47.422;9.656;2023-02-18T07:25:20;7.20;99.90
4366;DHT22;2196;47.422;9.656;2023-02-18T07:27:48;7.20;99.90
4366;DHT22;2196;47.422;9.656;2023-02-18T07:30:15;7.20;99.90
4366;DHT22;2196;47.422;9.656;2023-02-18T07:32:42;7.30;99.90
4366;DHT22;2196;47.422;9.656;2023-02-18T07:35:10;7.50;99.90
4366;DHT22;2196;47.422;9.656;2023-02-18T07:37:42;7.60;99.90
4366;DHT22;2196;47.422;9.656;2023-02-18T07:40:13;7.70;99.90
4366;DHT22;2196;47.422;9.656;2023-02-18T07:42:40;7.70;99.90
4366;DHT22;2196;47.422;9.656;2023-02-18T07:45:08;7.70;99.90
4366;DHT22;2196;47.422;9.656;2023-02-18T07:47:38;7.60;99.90
4366;DHT22;2196;47.422;9.656;2023-02-18T07:50:07;7.60;99.90
4366;DHT22;2196;47.422;9.656;2023-02-18T07:52:39;7.80;99.90
4366;DHT22;2196;47.422;9.656;2023-02-18T07:55:07;8.20;99.90
4366;DHT22;2196;47.422;9.656;2023-02-18T07:57:37;8.70;99.90
4366;DHT22;2196;47.422;9.656;2023-02-18T08:00:22;9.30;99.90
4366;DHT22;2196;47.422;9.656;2023-02-18T08:02:49;10.00;99.90
4366;DHT22;2196;47.422;9.656;2023-02-18T08:05:16;10.70;99.90
4366;DHT22;2196;47.422;9.656;2023-02-18T08:07:44;11.40;99.90
4366;DHT22;2196;47.422;9.656;2023-02-18T08:10:11;12.00;99.90
4366;DHT22;2196;47.422;9.656;2023-02-18T08:12:38;12.20;99.90
4366;DHT22;2196;47.422;9.656;2023-02-18T08:15:05;12.40;99.90
4366;DHT22;2196;47.422;9.656;2023-02-18T08:17:34;12.80;99.90
4366;DHT22;2196;47.422;9.656;2023-02-18T08:20:01;12.90;99.90
4366;DHT22;2196;47.422;9.656;2023-02-18T08:22:28;12.50;99.90
4366;DHT22;2196;47.422;9.656;2023-02-18T08:24:56;12.30;99.90
4366;DHT22;2196;47.422;9.656;2023-02-18T08:27:23;12.20;99.90
4366;DHT22;2196;47.422;9.656;2023-02-18T08:29:50;12.40;99.90
4366;DHT22;2196;47.422;9.656;2023-02-18T08:32:17;12.50;99.90
4366;DHT22;2196;47.422;9.656;2023-02-18T08:34:44;12.40;99.90
4366;DHT22;2196;47.422;9.656;2023-02-18T08:37:11;12.20;99.90
4366;DHT22;2196;47.422;9.656;2023-02-18T08:39:38;12.20;99.90
4366;DHT22;2196;47.422;9.656;2023-02-18T08:42:07;12.20;99.90
4366;DHT22;2196;47.422;9.656;2023-02-18T08:44:34;12.30;99.90
4366;DHT22;2196;47.422;9.656;2023-02-18T08:47:01;12.50;99.90
4366;DHT22;2196;47.422;9.656;2023-02-18T08:49:28;12.60;99.90
4366;DHT22;2196;47.422;9.656;2023-02-18T08:51:54;12.60;99.90
4366;DHT22;2196;47.422;9.656;2023-02-18T08:54:21;12.70;99.90
4366;DHT22;2196;47.422;9.656;2023-02-18T08:56:48;12.80;99.90
4366;DHT22;2196;47.422;9.656;2023-02-18T08:59:17;13.10;99.90
4366;DHT22;2196;47.422;9.656;2023-02-18T09:01:44;13.30;99.90
4366;DHT22;2196;47.422;9.656;2023-02-18T09:04:11;13.60;99.90
4366;DHT22;2196;47.422;9.656;2023-02-18T09:06:38;13.90;99.90
4366;DHT22;2196;47.422;9.656;2023-02-18T09:09:06;14.00;99.90
4366;DHT22;2196;47.422;9.656;2023-02-18T09:11:33;14.40;99.90
4366;DHT22;2196;47.422;9.656;2023-02-18T09:14:00;14.90;99.90
4366;DHT22;2196;47.422;9.656;2023-02-18T09:16:28;15.40;99.90
4366;DHT22;2196;47.422;9.656;2023-02-18T09:18:55;15.90;99.90
4366;DHT22;2196;47.422;9.656;2023-02-18T09:21:25;16.40;99.90
4366;DHT22;2196;47.422;9.656;2023-02-18T09:23:52;16.10;99.90
4366;DHT22;2196;47.422;9.656;2023-02-18T09:26:20;16.00;99.90
4366;DHT22;2196;47.422;9.656;2023-02-18T09:28:48;16.50;99.90
4366;DHT22;2196;47.422;9.656;2023-02-18T09:31:20;16.80;99.90
4366;DHT22;2196;47.422;9.656;2023-02-18T09:33:51;16.70;99.90
4366;DHT22;2196;47.422;9.656;2023-02-18T09:36:18;15.90;99.90
4366;DHT22;2196;47.422;9.656;2023-02-18T09:38:46;15.30;99.90
4366;DHT22;2196;47.422;9.656;2023-02-18T09:41:18;14.80;99.90
4366;DHT22;2196;47.422;9.656;2023-02-18T09:43:48;15.10;99.90
4366;DHT22;2196;47.422;9.656;2023-02-18T09:46:19;15.30;99.90
4366;DHT22;2196;47.422;9.656;2023-02-18T09:48:48;16.00;99.90
4366;DHT22;2196;47.422;9.656;2023-02-18T09:51:17;16.20;99.90
4366;DHT22;2196;47.422;9.656;2023-02-18T09:53:45;16.30;99.90
4366;DHT22;2196;47.422;9.656;2023-02-18T09:56:14;16.30;99.90
4366;DHT22;2196;47.422;9.656;2023-02-18T09:58:43;16.50;99.90
4366;DHT22;2196;47.422;9.656;2023-02-18T10:01:16;16.80;99.90
4366;DHT22;2196;47.422;9.656;2023-02-18T10:03:44;16.90;99.90
4366;DHT22;2196;47.422;9.656;2023-02-18T10:06:16;17.10;99.90
4366;DHT22;2196;47.422;9.656;2023-02-18T10:08:46;16.70;99.90
4366;DHT22;2196;47.422;9.656;2023-02-18T10:11:16;17.10;99.90
4366;DHT22;2196;47.422;9.656;2023-02-18T10:13:44;17.10;99.90
4366;DHT22;2196;47.422;9.656;2023-02-18T10:16:16;17.50;99.90
4366;DHT22;2196;47.422;9.656;2023-02-18T10:18:45;18.10;99.90
4366;DHT22;2196;47.422;9.656;2023-02-18T10:21:18;18.10;99.90
4366;DHT22;2196;47.422;9.656;2023-02-18T10:23:55;17.80;99.90
4366;DHT22;2196;47.422;9.656;2023-02-18T10:26:24;17.70;99.90
4366;DHT22;2196;47.422;9.656;2023-02-18T10:28:52;17.40;99.90
4366;DHT22;2196;47.422;9.656;2023-02-18T10:31:22;17.20;99.90
4366;DHT22;2196;47.422;9.656;2023-02-18T10:33:57;17.20;99.90
4366;DHT22;2196;47.422;9.656;2023-02-18T10:36:34;17.60;99.90
4366;DHT22;2196;47.422;9.656;2023-02-18T10:39:22;17.60;99.90
4366;DHT22;2196;47.422;9.656;2023-02-18T10:41:56;17.30;99.90
4366;DHT22;2196;47.422;9.656;2023-02-18T10:44:30;17.30;99.90
4366;DHT22;2196;47.422;9.656;2023-02-18T10:47:08;17.30;99.90
4366;DHT22;2196;47.422;9.656;2023-02-18T10:49:57;17.10;99.90
4366;DHT22;2196;47.422;9.656;2023-02-18T10:52:28;16.80;99.90
4366;DHT22;2196;47.422;9.656;2023-02-18T10:55:02;16.60;99.90
4366;DHT22;2196;47.422;9.656;2023-02-18T10:57:30;16.70;99.90
4366;DHT22;2196;47.422;9.656;2023-02-18T11:00:00;16.70;99.90
4366;DHT22;2196;47.422;9.656;2023-02-18T11:02:37;16.80;99.90
4366;DHT22;2196;47.422;9.656;2023-02-18T11:05:17;16.90;99.90
4366;DHT22;2196;47.422;9.656;2023-02-18T11:07:47;16.70;99.90
4366;DHT22;2196;47.422;9.656;2023-02-18T11:10:18;16.60;99.90
4366;DHT22;2196;47.422;9.656;2023-02-18T11:12:49;16.50;99.90
4366;DHT22;2196;47.422;9.656;2023-02-18T11:15:20;16.60;99.90
4366;DHT22;2196;47.422;9.656;2023-02-18T11:17:49;16.50;99.90
4366;DHT22;2196;47.422;9.656;2023-02-18T11:20:23;16.50;99.90
4366;DHT22;2196;47.422;9.656;2023-02-18T11:22:55;16.60;99.90
4366;DHT22;2196;47.422;9.656;2023-02-18T11:25:24;16.70;99.90
4366;DHT22;2196;47.422;9.656;2023-02-18T11:27:54;16.60;99.90
4366;DHT22;2196;47.422;9.656;2023-02-18T11:30:25;16.50;99.90
4366;DHT22;2196;47.422;9.656;2023-02-18T11:32:55;16.60;99.90
4366;DHT22;2196;47.422;9.656;2023-02-18T11:35:26;16.60;99.90
4366;DHT22;2196;47.422;9.656;2023-02-18T11:37:56;16.60;99.90
4366;DHT22;2196;47.422;9.656;2023-02-18T11:40:26;16.50;99.90
4366;DHT22;2196;47.422;9.656;2023-02-18T11:43:02;16.60;99.90
4366;DHT22;2196;47.422;9.656;2023-02-18T11:45:32;16.60;99.90
4366;DHT22;2196;47.422;9.656;2023-02-18T11:48:00;16.70;99.90
4366;DHT22;2196;47.422;9.656;2023-02-18T11:50:31;16.80;99.90
4366;DHT22;2196;47.422;9.656;2023-02-18T11:53:16;16.60;99.90
4366;DHT22;2196;47.422;9.656;2023-02-18T11:55:53;16.50;99.90
4366;DHT22;2196;47.422;9.656;2023-02-18T11:58:21;16.50;99.90
4366;DHT22;2196;47.422;9.656;2023-02-18T12:00:49;16.40;99.90
4366;DHT22;2196;47.422;9.656;2023-02-18T12:03:29;16.30;99.90
4366;DHT22;2196;47.422;9.656;2023-02-18T12:06:02;16.40;99.90
4366;DHT22;2196;47.422;9.656;2023-02-18T12:08:35;16.40;99.90
4366;DHT22;2196;47.422;9.656;2023-02-18T12:11:11;16.30;99.90
4366;DHT22;2196;47.422;9.656;2023-02-18T12:13:44;16.00;99.90
4366;DHT22;2196;47.422;9.656;2023-02-18T12:16:19;15.90;99.90
4366;DHT22;2196;47.422;9.656;2023-02-18T12:19:02;16.00;99.90
4366;DHT22;2196;47.422;9.656;2023-02-18T12:21:36;16.10;99.90
4366;DHT22;2196;47.422;9.656;2023-02-18T12:24:17;16.20;99.90
4366;DHT22;2196;47.422;9.656;2023-02-18T12:26:55;16.20;99.90
4366;DHT22;2196;47.422;9.656;2023-02-18T12:29:39;16.40;99.90
4366;DHT22;2196;47.422;9.656;2023-02-18T12:32:23;16.30;99.90
4366;DHT22;2196;47.422;9.656;2023-02-18T12:35:08;16.30;99.90
4366;DHT22;2196;47.422;9.656;2023-02-18T12:37:51;16.20;99.90
4366;DHT22;2196;47.422;9.656;2023-02-18T12:40:36;16.20;99.90
4366;DHT22;2196;47.422;9.656;2023-02-18T12:43:14;16.40;99.90
4366;DHT22;2196;47.422;9.656;2023-02-18T12:45:58;16.40;99.90
4366;DHT22;2196;47.422;9.656;2023-02-18T12:48:56;16.50;99.90
4366;DHT22;2196;47.422;9.656;2023-02-18T12:51:37;16.50;99.90
4366;DHT22;2196;47.422;9.656;2023-02-18T12:54:15;16.40;99.90
4366;DHT22;2196;47.422;9.656;2023-02-18T12:57:04;16.30;99.90
4366;DHT22;2196;47.422;9.656;2023-02-18T12:59:53;16.40;99.90
4366;DHT22;2196;47.422;9.656;2023-02-18T13:02:44;16.60;99.90
4366;DHT22;2196;47.422;9.656;2023-02-18T13:05:27;16.30;99.90
4366;DHT22;2196;47.422;9.656;2023-02-18T13:08:09;16.40;99.90
4366;DHT22;2196;47.422;9.656;2023-02-18T13:10:55;16.40;99.90
4366;DHT22;2196;47.422;9.656;2023-02-18T13:13:32;16.30;99.90
4366;DHT22;2196;47.422;9.656;2023-02-18T13:16:02;16.20;99.90
4366;DHT22;2196;47.422;9.656;2023-02-18T13:18:33;16.10;99.90
4366;DHT22;2196;47.422;9.656;2023-02-18T13:21:04;16.00;99.90
4366;DHT22;2196;47.422;9.656;2023-02-18T13:23:34;15.80;99.90
4366;DHT22;2196;47.422;9.656;2023-02-18T13:26:04;15.70;99.90
4366;DHT22;2196;47.422;9.656;2023-02-18T13:28:42;15.70;99.90
4366;DHT22;2196;47.422;9.656;2023-02-18T13:31:21;15.60;99.90
4366;DHT22;2196;47.422;9.656;2023-02-18T13:33:55;15.70;99.90
4366;DHT22;2196;47.422;9.656;2023-02-18T13:36:35;15.70;99.90
4366;DHT22;2196;47.422;9.656;2023-02-18T13:39:06;15.70;99.90
4366;DHT22;2196;47.422;9.656;2023-02-18T13:41:36;15.60;99.90
4366;DHT22;2196;47.422;9.656;2023-02-18T13:46:53;15.50;99.90
4366;DHT22;2196;47.422;9.656;2023-02-18T13:49:22;15.50;99.90
4366;DHT22;2196;47.422;9.656;2023-02-18T13:51:51;15.40;99.90
4366;DHT22;2196;47.422;9.656;2023-02-18T13:54:23;15.40;99.90
4366;DHT22;2196;47.422;9.656;2023-02-18T13:56:53;15.40;99.90
4366;DHT22;2196;47.422;9.656;2023-02-18T13:59:27;15.40;99.90
4366;DHT22;2196;47.422;9.656;2023-02-18T14:02:19;15.30;99.90
4366;DHT22;2196;47.422;9.656;2023-02-18T14:04:55;15.20;99.90
4366;DHT22;2196;47.422;9.656;2023-02-18T14:07:26;15.20;99.90
4366;DHT22;2196;47.422;9.656;2023-02-18T14:09:55;15.20;99.90
4366;DHT22;2196;47.422;9.656;2023-02-18T14:12:36;15.20;99.90
4366;DHT22;2196;47.422;9.656;2023-02-18T14:19:00;15.20;99.90
4366;DHT22;2196;47.422;9.656;2023-02-18T14:21:40;15.30;99.90
4366;DHT22;2196;47.422;9.656;2023-02-18T14:24:10;15.40;99.90
4366;DHT22;2196;47.422;9.656;2023-02-18T14:26:42;15.40;99.90
4366;DHT22;2196;47.422;9.656;2023-02-18T14:29:19;15.30;99.90
4366;DHT22;2196;47.422;9.656;2023-02-18T14:31:52;15.30;99.90
4366;DHT22;2196;47.422;9.656;2023-02-18T14:40:38;15.30;99.90
4366;DHT22;2196;47.422;9.656;2023-02-18T14:43:16;15.30;99.90
4366;DHT22;2196;47.422;9.656;2023-02-18T14:46:15;15.30;99.90
4366;DHT22;2196;47.422;9.656;2023-02-18T14:49:07;15.30;99.90
4366;DHT22;2196;47.422;9.656;2023-02-18T14:51:41;15.30;99.90
4366;DHT22;2196;47.422;9.656;2023-02-18T14:54:13;15.30;99.90
4366;DHT22;2196;47.422;9.656;2023-02-18T14:56:50;15.20;99.90
4366;DHT22;2196;47.422;9.656;2023-02-18T14:59:20;15.20;99.90
4366;DHT22;2196;47.422;9.656;2023-02-18T15:01:48;15.30;99.90
4366;DHT22;2196;47.422;9.656;2023-02-18T15:04:15;15.20;99.90
4366;DHT22;2196;47.422;9.656;2023-02-18T15:06:43;15.30;99.90
4366;DHT22;2196;47.422;9.656;2023-02-18T15:09:18;15.40;99.90
4366;DHT22;2196;47.422;9.656;2023-02-18T15:11:50;15.40;99.90
4366;DHT22;2196;47.422;9.656;2023-02-18T15:14:20;15.40;99.90
4366;DHT22;2196;47.422;9.656;2023-02-18T15:16:49;15.30;99.90
4366;DHT22;2196;47.422;9.656;2023-02-18T15:19:18;15.30;99.90
4366;DHT22;2196;47.422;9.656;2023-02-18T15:21:49;15.20;99.90
4366;DHT22;2196;47.422;9.656;2023-02-18T15:24:23;15.20;99.90
4366;DHT22;2196;47.422;9.656;2023-02-18T15:26:52;15.10;99.90
4366;DHT22;2196;47.422;9.656;2023-02-18T15:29:21;15.00;99.90
4366;DHT22;2196;47.422;9.656;2023-02-18T15:31:49;14.90;99.90
4366;DHT22;2196;47.422;9.656;2023-02-18T15:34:35;14.80;99.90
4366;DHT22;2196;47.422;9.656;2023-02-18T15:37:05;14.80;99.90
4366;DHT22;2196;47.422;9.656;2023-02-18T15:39:33;14.80;99.90
4366;DHT22;2196;47.422;9.656;2023-02-18T15:42:07;14.70;99.90
4366;DHT22;2196;47.422;9.656;2023-02-18T15:44:36;14.70;99.90
4366;DHT22;2196;47.422;9.656;2023-02-18T15:47:05;14.60;99.90
4366;DHT22;2196;47.422;9.656;2023-02-18T15:49:34;14.30;99.90
4366;DHT22;2196;47.422;9.656;2023-02-18T15:52:04;14.20;99.90
4366;DHT22;2196;47.422;9.656;2023-02-18T15:54:37;14.10;99.90
4366;DHT22;2196;47.422;9.656;2023-02-18T15:57:06;14.10;99.90
4366;DHT22;2196;47.422;9.656;2023-02-18T15:59:43;14.00;99.90
4366;DHT22;2196;47.422;9.656;2023-02-18T16:02:16;13.90;99.90
4366;DHT22;2196;47.422;9.656;2023-02-18T16:04:47;13.80;99.90
4366;DHT22;2196;47.422;9.656;2023-02-18T16:07:23;13.60;99.90
4366;DHT22;2196;47.422;9.656;2023-02-18T16:10:07;13.50;99.90
4366;DHT22;2196;47.422;9.656;2023-02-18T16:12:39;13.50;99.90
4366;DHT22;2196;47.422;9.656;2023-02-18T16:15:13;13.40;99.90
4366;DHT22;2196;47.422;9.656;2023-02-18T16:17:43;13.20;99.90
4366;DHT22;2196;47.422;9.656;2023-02-18T16:20:21;13.10;99.90
4366;DHT22;2196;47.422;9.656;2023-02-18T16:22:52;12.90;99.90
4366;DHT22;2196;47.422;9.656;2023-02-18T16:25:22;12.70;99.90
4366;DHT22;2196;47.422;9.656;2023-02-18T16:27:53;12.70;99.90
4366;DHT22;2196;47.422;9.656;2023-02-18T16:30:22;12.60;99.90
4366;DHT22;2196;47.422;9.656;2023-02-18T16:32:50;12.50;99.90
4366;DHT22;2196;47.422;9.656;2023-02-18T16:35:17;12.50;99.90
4366;DHT22;2196;47.422;9.656;2023-02-18T16:37:44;12.50;99.90
4366;DHT22;2196;47.422;9.656;2023-02-18T16:40:37;12.40;99.90
4366;DHT22;2196;47.422;9.656;2023-02-18T16:43:09;12.30;99.90
4366;DHT22;2196;47.422;9.656;2023-02-18T16:45:38;12.20;99.90
4366;DHT22;2196;47.422;9.656;2023-02-18T16:48:12;12.10;99.90